Time;durP1;ratioP1;P1;durP2;ratioP2;P2;SDS_P1;SDS_P2;PMS_P1;PMS_P2;Temp;Humidity;BMP_temperature;BMP_pressure;BME280_temperature;BME280_humidity;BME280_pressure;Samples;Min_cycle;Max_cycle;Signal;HPM_P1;HPM_P2
2023/01/29 00:00:17;;;;;;;13.43;6.60;;;;;;;5.48;48.02;102363.25;5070127;27;97578;-71
2023/01/29 00:02:44;;;;;;;10.43;6.50;;;;;;;5.32;47.67;102361.31;5068677;27;97254;-70
2023/01/29 00:05:10;;;;;;;10.02;6.90;;;;;;;5.38;47.57;102360.53;5067363;27;97881;-71
2023/01/29 00:07:36;;;;;;;9.82;6.15;;;;;;;5.48;48.00;102357.13;5067493;27;98978;-71
2023/01/29 00:10:05;;;;;;;9.20;6.10;;;;;;;5.63;48.21;102361.66;5069559;27;98922;-70
2023/01/29 00:12:31;;;;;;;10.80;6.88;;;;;;;5.68;47.70;102354.72;5072212;27;97015;-70
2023/01/29 00:14:57;;;;;;;14.20;7.15;;;;;;;5.56;47.36;102361.59;5070814;27;97200;-70
2023/01/29 00:17:24;;;;;;;13.15;7.57;;;;;;;5.37;47.67;102361.38;5065993;27;97899;-70
2023/01/29 00:19:50;;;;;;;12.23;7.30;;;;;;;5.12;48.91;102363.69;5070469;27;99767;-70
2023/01/29 00:22:16;;;;;;;15.57;7.40;;;;;;;5.30;48.92;102352.56;5065546;27;97663;-70
2023/01/29 00:24:43;;;;;;;11.38;7.13;;;;;;;5.08;48.76;102356.66;5069764;27;96809;-70
2023/01/29 00:27:11;;;;;;;12.75;7.35;;;;;;;4.96;49.70;102356.50;5068757;27;99175;-70
2023/01/29 00:29:37;;;;;;;11.60;7.40;;;;;;;4.99;49.21;102348.66;5057744;27;98780;-69
2023/01/29 00:32:04;;;;;;;14.82;7.57;;;;;;;5.19;49.29;102344.56;5067650;27;96952;-68
2023/01/29 00:34:30;;;;;;;15.55;7.68;;;;;;;5.29;48.64;102340.31;5064735;27;97943;-69
2023/01/29 00:37:03;;;;;;;11.98;7.65;;;;;;;5.14;48.75;102346.25;5070900;27;98222;-71
2023/01/29 00:39:37;;;;;;;16.30;8.52;;;;;;;5.32;49.17;102342.06;5067857;27;98999;-71
2023/01/29 00:45:04;;;;;;;16.23;8.55;;;;;;;5.28;48.46;102335.94;5026713;27;97277;-70
2023/01/29 00:47:32;;;;;;;14.07;7.70;;;;;;;5.56;48.86;102324.88;5028059;28;99063;-69
2023/01/29 00:49:59;;;;;;;18.35;9.68;;;;;;;5.38;49.06;102323.81;5053838;27;101222;-69
2023/01/29 00:52:25;;;;;;;12.82;7.80;;;;;;;5.54;48.46;102317.84;5070148;27;96646;-69
2023/01/29 00:54:55;;;;;;;15.38;9.05;;;;;;;5.72;48.43;102331.16;5070715;27;97230;-68
2023/01/29 00:57:22;;;;;;;11.75;8.80;;;;;;;5.76;48.25;102326.81;5071502;27;97564;-68
2023/01/29 00:59:48;;;;;;;14.85;9.05;;;;;;;5.87;47.75;102333.03;5073657;27;98755;-68
2023/01/29 01:05:02;;;;;;;16.83;9.30;;;;;;;5.36;49.48;102330.78;5070387;27;97154;-69
2023/01/29 01:07:28;;;;;;;16.83;9.07;;;;;;;5.35;49.50;102331.66;5071050;27;99263;-70
2023/01/29 01:12:39;;;;;;;15.30;10.02;;;;;;;5.25;49.89;102333.25;5066341;27;96938;-71
2023/01/29 01:15:06;;;;;;;16.17;9.77;;;;;;;5.26;49.72;102323.66;5067789;27;97196;-69
2023/01/29 01:17:34;;;;;;;18.08;10.02;;;;;;;5.22;50.11;102331.50;5080138;27;98879;-67
2023/01/29 01:20:00;;;;;;;15.48;9.77;;;;;;;5.37;50.26;102335.16;5074809;27;99626;-69
2023/01/29 01:22:27;;;;;;;17.20;10.18;;;;;;;4.88;51.11;102320.59;5075166;27;97114;-69
2023/01/29 01:24:53;;;;;;;22.20;10.85;;;;;;;4.90;51.50;102325.00;5074419;27;96778;-69
2023/01/29 01:27:20;;;;;;;22.40;11.45;;;;;;;5.05;51.36;102335.69;5071233;27;99294;-69
2023/01/29 01:29:46;;;;;;;17.42;10.50;;;;;;;5.05;50.94;102335.69;5061626;27;99841;-68
2023/01/29 01:32:13;;;;;;;19.27;10.80;;;;;;;5.06;51.48;102326.94;5070859;27;97277;-70
2023/01/29 01:34:41;;;;;;;17.73;9.73;;;;;;;5.28;50.61;102325.44;5071452;27;96816;-68
2023/01/29 01:37:07;;;;;;;19.85;10.77;;;;;;;5.29;50.11;102323.72;5068877;27;98522;-69
2023/01/29 01:39:34;;;;;;;19.92;10.50;;;;;;;5.47;50.24;102324.78;5071877;27;99187;-69
2023/01/29 01:42:00;;;;;;;22.10;11.77;;;;;;;5.21;51.17;102327.13;5060506;27;97618;-68
2023/01/29 01:44:51;;;;;;;19.13;11.32;;;;;;;5.36;50.82;102338.66;5069131;27;97278;-70
2023/01/29 01:47:22;;;;;;;18.15;9.93;;;;;;;5.29;50.65;102336.81;5067353;27;99412;-69
2023/01/29 01:49:50;;;;;;;19.27;10.05;;;;;;;5.38;50.61;102339.56;5073249;27;99991;-70
2023/01/29 01:52:18;;;;;;;19.83;11.10;;;;;;;5.51;50.20;102334.44;5080162;27;96694;-70
2023/01/29 01:54:45;;;;;;;16.73;9.95;;;;;;;5.38;50.54;102332.53;5064962;27;97409;-69
2023/01/29 01:57:24;;;;;;;17.55;10.15;;;;;;;5.46;50.46;102328.25;5068882;27;99383;-68
2023/01/29 01:59:56;;;;;;;17.73;10.43;;;;;;;5.38;50.86;102327.28;5070408;27;99242;-71
2023/01/29 02:10:43;;;;;;;18.73;10.02;;;;;;;5.35;50.94;102303.69;5067614;27;97088;-70
2023/01/29 02:13:11;;;;;;;17.50;11.30;;;;;;;5.32;51.30;102302.75;5076987;27;97981;-70
2023/01/29 02:15:40;;;;;;;19.42;11.85;;;;;;;5.41;50.42;102303.75;5074501;27;96983;-70
2023/01/29 02:18:07;;;;;;;20.35;10.43;;;;;;;5.36;50.99;102315.06;5074502;27;98960;-70
2023/01/29 02:20:38;;;;;;;17.67;10.63;;;;;;;5.56;50.52;102308.28;5072048;27;98914;-70
2023/01/29 02:23:28;;;;;;;20.77;11.43;;;;;;;5.41;51.09;102303.75;5073173;27;96889;-70
2023/01/29 02:26:19;;;;;;;22.88;10.80;;;;;;;5.58;50.46;102296.03;5064151;27;96843;-69
2023/01/29 02:28:54;;;;;;;19.75;11.02;;;;;;;5.61;50.55;102289.09;5061891;27;98913;-70
2023/01/29 02:31:28;;;;;;;21.98;11.32;;;;;;;5.79;49.94;102292.72;5059356;27;98998;-70
2023/01/29 02:34:06;;;;;;;18.90;10.85;;;;;;;5.78;50.35;102298.84;5072262;27;97173;-68
2023/01/29 02:36:40;;;;;;;20.83;10.88;;;;;;;5.36;50.75;102296.72;5071320;27;96861;-69
2023/01/29 02:39:15;;;;;;;19.77;11.77;;;;;;;5.42;50.94;102299.38;5067962;27;102124;-69
2023/01/29 02:41:46;;;;;;;19.20;11.50;;;;;;;5.53;50.59;102292.50;5064860;27;99184;-70
2023/01/29 02:44:23;;;;;;;19.27;11.32;;;;;;;5.78;50.40;102298.84;5066013;27;97752;-72
2023/01/29 02:46:55;;;;;;;18.33;10.57;;;;;;;5.73;50.37;102298.81;5068401;27;98186;-70
2023/01/29 02:49:27;;;;;;;19.60;11.93;;;;;;;5.75;50.47;102299.72;5065532;27;99229;-70
2023/01/29 02:52:02;;;;;;;20.02;11.48;;;;;;;5.65;50.76;102287.38;5070787;27;97243;-70
2023/01/29 02:54:35;;;;;;;19.20;11.18;;;;;;;5.76;50.85;102288.34;5066316;27;97973;-69
2023/01/29 02:57:13;;;;;;;19.95;11.48;;;;;;;5.68;50.77;102284.78;5071684;27;97699;-69
2023/01/29 02:59:47;;;;;;;19.42;11.93;;;;;;;5.72;50.72;102281.31;5069177;27;98914;-69
2023/01/29 03:02:17;;;;;;;24.27;11.52;;;;;;;5.74;51.03;102286.56;5071692;27;99298;-69
2023/01/29 03:04:50;;;;;;;21.83;11.98;;;;;;;5.71;51.22;102290.03;5069102;27;96856;-70
2023/01/29 03:10:09;;;;;;;21.88;12.55;;;;;;;6.04;50.33;102283.38;5069921;27;98567;-69
2023/01/29 03:12:38;;;;;;;22.52;11.85;;;;;;;5.75;51.32;102283.97;5072183;27;98787;-69
2023/01/29 03:15:15;;;;;;;20.33;12.07;;;;;;;5.71;51.09;102276.06;5071871;27;96825;-70
2023/01/29 03:17:46;;;;;;;21.80;11.75;;;;;;;5.43;52.30;102269.69;5074077;27;96681;-70
2023/01/29 03:23:01;;;;;;;22.35;12.00;;;;;;;5.49;51.93;102275.00;5072456;27;98149;-69
2023/01/29 03:33:54;;;;;;;22.05;12.23;;;;;;;5.49;52.72;102261.88;5065605;27;97237;-70
2023/01/29 03:36:37;;;;;;;20.42;11.25;;;;;;;5.17;52.77;102253.72;5065334;27;96748;-69
2023/01/29 03:39:04;;;;;;;27.50;12.60;;;;;;;5.05;53.34;102249.22;5064333;27;98742;-68
2023/01/29 03:41:34;;;;;;;21.15;12.45;;;;;;;5.16;53.35;102250.19;5068823;27;99275;-69
2023/01/29 03:44:12;;;;;;;23.88;13.00;;;;;;;5.35;52.89;102242.53;5068415;27;99372;-69
2023/01/29 03:46:48;;;;;;;21.75;11.55;;;;;;;5.47;52.45;102243.50;5072379;27;96711;-69
2023/01/29 03:49:22;;;;;;;22.65;12.45;;;;;;;5.45;52.42;102234.75;5065880;27;97470;-68
2023/01/29 03:51:58;;;;;;;22.75;12.85;;;;;;;5.48;52.23;102223.41;5069773;27;98942;-69
2023/01/29 03:54:32;;;;;;;22.85;12.38;;;;;;;5.27;53.41;102225.84;5063296;27;98127;-69
2023/01/29 03:57:04;;;;;;;22.77;12.43;;;;;;;5.18;53.72;102218.78;5068739;27;97755;-70
2023/01/29 03:59:39;;;;;;;20.23;12.27;;;;;;;5.30;53.78;102213.66;5068701;27;97818;-68
2023/01/29 04:02:12;;;;;;;23.38;12.43;;;;;;;5.29;53.68;102204.03;5067392;27;101021;-68
2023/01/29 04:04:44;;;;;;;25.35;12.70;;;;;;;5.22;54.17;102192.59;5070015;27;101769;-69
2023/01/29 04:07:16;;;;;;;23.52;12.48;;;;;;;5.15;54.61;102190.78;5068362;27;96826;-70
2023/01/29 04:09:46;;;;;;;25.35;11.77;;;;;;;5.26;54.45;102192.63;5069878;27;98881;-70
2023/01/29 04:12:30;;;;;;;24.83;12.82;;;;;;;5.41;53.97;102180.53;5064233;27;99260;-69
2023/01/29 04:15:01;;;;;;;20.23;11.98;;;;;;;5.33;53.91;102176.09;5066741;27;98415;-69
2023/01/29 04:17:34;;;;;;;21.70;12.68;;;;;;;5.50;54.11;102172.75;5068971;27;97151;-70
2023/01/29 04:20:01;;;;;;;25.52;13.02;;;;;;;5.54;53.96;102171.91;5070169;27;96710;-70
2023/01/29 04:22:31;;;;;;;23.95;13.60;;;;;;;5.50;54.82;102170.13;5074381;27;99050;-70
2023/01/29 04:25:01;;;;;;;19.55;12.57;;;;;;;5.40;55.63;102170.03;5073683;27;99271;-69
2023/01/29 04:27:41;;;;;;;23.75;12.85;;;;;;;5.62;55.65;102174.59;5068065;27;97344;-70
2023/01/29 04:30:22;;;;;;;21.00;12.25;;;;;;;5.67;55.73;102175.50;5063804;27;96899;-70
2023/01/29 04:33:02;;;;;;;26.02;13.10;;;;;;;5.47;56.71;102159.63;5068076;27;99195;-69
2023/01/29 04:35:36;;;;;;;22.83;13.32;;;;;;;5.47;56.28;102162.22;5063214;27;98799;-69
2023/01/29 04:38:11;;;;;;;25.27;14.25;;;;;;;5.59;56.62;102148.34;5072838;27;97029;-69
2023/01/29 04:40:48;;;;;;;17.57;10.73;;;;;;;5.57;56.38;102155.34;5064830;27;98686;-68
2023/01/29 04:43:21;;;;;;;28.80;13.82;;;;;;;5.55;56.60;102152.69;5061740;27;99148;-68
2023/01/29 04:46:00;;;;;;;24.02;13.60;;;;;;;5.73;55.98;102164.16;5063057;27;99249;-69
2023/01/29 04:48:33;;;;;;;32.60;14.15;;;;;;;5.71;56.08;102158.91;5071582;27;96693;-71
2023/01/29 04:51:08;;;;;;;27.45;13.88;;;;;;;5.74;56.27;102152.81;5065176;27;96756;-69
2023/01/29 04:53:51;;;;;;;27.15;14.82;;;;;;;5.71;56.59;102158.91;5072254;27;100408;-70
2023/01/29 04:56:23;;;;;;;24.15;13.45;;;;;;;5.68;56.79;102161.53;5067767;27;98925;-69
2023/01/29 04:58:55;;;;;;;27.98;14.85;;;;;;;5.46;57.75;102160.47;5066357;27;97177;-69
2023/01/29 05:01:28;;;;;;;27.70;14.35;;;;;;;5.53;57.96;102164.91;5061922;27;97528;-68
2023/01/29 05:03:57;;;;;;;28.70;15.05;;;;;;;5.71;57.51;102166.78;5074188;27;98952;-69
2023/01/29 05:06:25;;;;;;;30.30;14.45;;;;;;;5.64;57.56;102149.25;5066114;27;99313;-70
2023/01/29 05:08:52;;;;;;;30.58;15.00;;;;;;;5.57;57.67;102168.44;5072460;27;96798;-68
2023/01/29 05:11:20;;;;;;;30.88;15.57;;;;;;;5.38;58.22;102166.53;5066820;27;97402;-70
2023/01/29 05:13:48;;;;;;;29.25;15.95;;;;;;;5.44;58.26;102169.22;5072762;27;99592;-70
2023/01/29 05:16:19;;;;;;;25.80;14.70;;;;;;;5.56;58.81;102167.56;5073042;27;100498;-69
2023/01/29 05:18:46;;;;;;;27.88;14.75;;;;;;;5.58;58.26;102164.94;5074344;27;96803;-71
2023/01/29 05:21:14;;;;;;;29.10;15.45;;;;;;;5.70;58.15;102164.16;5072268;27;97262;-69
2023/01/29 05:23:58;;;;;;;29.17;15.52;;;;;;;5.78;58.08;102168.56;5068985;27;99340;-71
2023/01/29 05:29:08;;;;;;;28.83;15.07;;;;;;;5.80;58.18;102165.97;5067200;27;98529;-70
2023/01/29 05:31:35;;;;;;;24.83;15.25;;;;;;;5.69;58.30;102170.28;5073613;27;99050;-69
2023/01/29 05:34:01;;;;;;;28.17;15.00;;;;;;;5.82;57.85;102170.38;5071656;27;99477;-68
2023/01/29 05:36:29;;;;;;;30.17;15.95;;;;;;;6.00;57.67;102167.00;5071027;27;98764;-69
2023/01/29 05:38:55;;;;;;;29.02;15.10;;;;;;;5.74;58.13;102172.06;5073329;27;96792;-69
2023/01/29 05:41:24;;;;;;;29.98;16.33;;;;;;;5.78;57.77;102172.94;5070828;27;98751;-70
2023/01/29 05:43:51;;;;;;;28.60;15.23;;;;;;;5.37;59.41;102170.03;5066085;27;98121;-70
2023/01/29 05:46:17;;;;;;;32.42;15.85;;;;;;;5.72;58.08;102173.78;5071986;27;98070;-69
2023/01/29 05:48:44;;;;;;;29.55;14.85;;;;;;;5.30;59.58;102176.06;5072801;27;96777;-69
2023/01/29 05:51:10;;;;;;;31.73;16.60;;;;;;;5.59;58.19;102177.19;5069679;27;97024;-70
2023/01/29 05:53:38;;;;;;;27.77;15.07;;;;;;;5.45;58.80;102179.69;5067467;27;98947;-70
2023/01/29 05:56:05;;;;;;;31.85;15.90;;;;;;;5.53;59.11;102183.25;5070975;27;99246;-69
2023/01/29 05:58:32;;;;;;;26.92;15.10;;;;;;;5.57;58.55;102189.41;5071698;27;99332;-71
2023/01/29 06:01:08;;;;;;;32.97;16.05;;;;;;;5.77;58.13;102185.19;5071175;27;96928;-69
2023/01/29 06:03:34;;;;;;;34.42;18.70;;;;;;;5.69;58.49;102189.50;5066189;27;99433;-68
2023/01/29 06:06:01;;;;;;;30.60;17.05;;;;;;;5.89;57.82;102192.31;5068408;27;99190;-69
2023/01/29 06:08:28;;;;;;;30.05;16.25;;;;;;;5.82;57.91;102185.22;5071127;27;98598;-68
2023/01/29 06:10:55;;;;;;;32.72;16.50;;;;;;;5.77;57.83;102185.19;5063032;27;98741;-70
2023/01/29 06:13:22;;;;;;;30.05;16.67;;;;;;;5.82;58.02;102193.97;5061309;27;98979;-69
2023/01/29 06:15:48;;;;;;;30.27;16.02;;;;;;;5.76;58.31;102191.31;5067802;27;99365;-69
2023/01/29 06:18:14;;;;;;;31.48;16.65;;;;;;;5.69;58.07;102193.88;5074228;27;96818;-70
2023/01/29 06:20:41;;;;;;;30.15;15.88;;;;;;;5.57;59.13;102210.41;5075390;27;96984;-69
2023/01/29 06:23:07;;;;;;;29.65;16.30;;;;;;;5.74;58.26;102207.88;5074971;27;98887;-70
2023/01/29 06:25:34;;;;;;;29.30;16.75;;;;;;;5.85;57.89;102193.97;5072747;27;98902;-68
2023/01/29 06:28:02;;;;;;;31.15;15.82;;;;;;;5.75;58.28;102189.56;5070112;27;96800;-69
2023/01/29 06:30:28;;;;;;;32.70;16.45;;;;;;;5.74;58.35;102189.53;5067063;27;98897;-69
2023/01/29 06:32:55;;;;;;;28.17;16.42;;;;;;;5.69;58.86;102188.63;5067577;27;102334;-69
2023/01/29 06:35:22;;;;;;;30.10;16.35;;;;;;;5.63;59.02;102189.47;5068355;27;99262;-69
2023/01/29 06:37:48;;;;;;;35.00;16.52;;;;;;;5.48;59.16;102186.72;5071907;27;96827;-69
2023/01/29 06:40:15;;;;;;;29.00;16.60;;;;;;;5.69;59.07;102188.63;5071750;27;96883;-70
2023/01/29 06:42:41;;;;;;;31.02;16.92;;;;;;;5.67;59.11;102183.38;5064680;27;101770;-70
2023/01/29 06:45:10;;;;;;;29.98;16.48;;;;;;;5.61;59.32;102185.94;5068403;27;98760;-69
2023/01/29 06:47:37;;;;;;;32.83;17.25;;;;;;;5.63;59.05;102194.72;5061082;27;97484;-69
2023/01/29 06:50:04;;;;;;;31.17;15.93;;;;;;;5.52;59.37;102197.22;5067214;27;98819;-69
2023/01/29 06:52:30;;;;;;;31.38;16.67;;;;;;;5.71;58.78;102200.03;5066970;27;98985;-69
2023/01/29 06:54:56;;;;;;;32.30;16.65;;;;;;;5.79;58.84;102204.44;5071135;27;99946;-70
2023/01/29 06:57:23;;;;;;;29.00;16.83;;;;;;;5.53;60.08;102200.72;5071387;27;97226;-70
2023/01/29 06:59:50;;;;;;;34.83;17.40;;;;;;;5.48;60.08;102194.56;5062845;27;98408;-70
2023/01/29 07:02:17;;;;;;;30.05;16.85;;;;;;;5.25;60.83;102201.38;5069390;27;100332;-69
2023/01/29 07:04:44;;;;;;;31.85;16.77;;;;;;;5.20;60.93;102186.47;5063295;27;99276;-70
2023/01/29 07:07:12;;;;;;;33.08;16.90;;;;;;;5.30;60.85;102187.44;5069929;27;98389;-69
2023/01/29 07:09:39;;;;;;;29.67;16.42;;;;;;;5.40;60.75;102191.00;5066619;27;96723;-69
2023/01/29 07:12:07;;;;;;;32.20;18.10;;;;;;;5.56;60.65;102192.91;5070248;27;99280;-70
2023/01/29 07:14:33;;;;;;;34.15;17.48;;;;;;;5.32;61.21;102183.06;5061362;27;98989;-70
2023/01/29 07:16:59;;;;;;;29.10;16.25;;;;;;;5.18;61.63;102175.13;5066573;27;97602;-69
2023/01/29 07:19:27;;;;;;;29.27;17.40;;;;;;;5.24;61.91;102186.50;5065251;27;98673;-69
2023/01/29 07:21:54;;;;;;;31.50;17.38;;;;;;;5.45;61.47;102179.69;5066269;27;98836;-69
2023/01/29 07:24:26;;;;;;;35.15;17.92;;;;;;;5.77;60.35;102185.19;5072054;27;99000;-70
2023/01/29 07:26:52;;;;;;;31.98;17.65;;;;;;;5.91;59.96;102180.94;5064476;27;96948;-68
2023/01/29 07:29:18;;;;;;;33.30;17.50;;;;;;;5.89;59.47;102192.31;5069549;27;98971;-69
2023/01/29 07:31:45;;;;;;;34.50;17.55;;;;;;;5.85;60.28;102196.59;5060521;27;99045;-69
2023/01/29 07:34:11;;;;;;;33.67;17.27;;;;;;;5.67;60.53;102196.47;5070223;27;101781;-69
2023/01/29 07:36:39;;;;;;;31.10;17.08;;;;;;;5.78;60.22;102197.41;5069746;27;98838;-71
2023/01/29 07:39:05;;;;;;;35.88;18.98;;;;;;;5.82;60.29;102198.34;5071316;27;96726;-70
2023/01/29 07:41:32;;;;;;;32.65;17.58;;;;;;;5.96;59.90;102192.34;5065462;27;98888;-70
2023/01/29 07:43:58;;;;;;;33.28;17.90;;;;;;;6.00;59.91;102174.88;5068435;27;99468;-69
2023/01/29 07:46:25;;;;;;;34.80;18.05;;;;;;;6.10;59.63;102173.19;5071706;27;96660;-69
2023/01/29 07:48:51;;;;;;;36.63;17.23;;;;;;;5.92;59.93;102160.81;5068846;27;98153;-70
2023/01/29 07:51:20;;;;;;;32.95;17.90;;;;;;;5.88;60.36;102152.06;5066796;27;99442;-70
2023/01/29 07:53:47;;;;;;;35.28;18.77;;;;;;;5.96;59.99;102146.88;5061996;27;99344;-69
2023/01/29 07:56:25;;;;;;;33.50;17.52;;;;;;;5.83;60.82;102148.50;5068036;27;96648;-68
2023/01/29 07:58:52;;;;;;;34.08;18.30;;;;;;;5.91;60.66;102145.94;5070849;27;96694;-69
2023/01/29 08:01:18;;;;;;;33.85;18.67;;;;;;;6.12;60.23;102150.44;5062815;27;99519;-69
2023/01/29 08:03:45;;;;;;;32.65;18.00;;;;;;;6.16;59.94;102165.34;5067243;27;99038;-68
2023/01/29 08:06:11;;;;;;;37.65;19.30;;;;;;;5.90;61.33;102155.59;5070680;27;97287;-69
2023/01/29 08:08:38;;;;;;;35.90;18.90;;;;;;;6.02;61.00;102146.03;5063305;27;98146;-69
2023/01/29 08:11:06;;;;;;;33.58;17.40;;;;;;;5.96;61.17;102139.88;5068877;27;99369;-70
2023/01/29 08:13:33;;;;;;;34.72;18.95;;;;;;;5.80;61.60;102143.22;5071905;27;99381;-69
2023/01/29 08:16:00;;;;;;;39.42;19.10;;;;;;;5.98;61.55;102138.13;5063531;27;96819;-69
2023/01/29 08:18:27;;;;;;;35.92;18.67;;;;;;;5.94;61.38;102138.09;5072082;27;97105;-68
2023/01/29 08:20:53;;;;;;;36.70;18.05;;;;;;;5.84;61.88;102139.75;5069167;27;99260;-68
2023/01/29 08:23:20;;;;;;;35.80;19.02;;;;;;;5.83;62.33;102140.66;5065266;27;99340;-69
2023/01/29 08:25:46;;;;;;;33.25;17.98;;;;;;;5.96;61.52;102142.50;5056593;27;97465;-70
2023/01/29 08:28:14;;;;;;;36.22;18.23;;;;;;;5.90;61.75;102142.47;5063877;27;97555;-69
2023/01/29 08:30:42;;;;;;;34.45;18.48;;;;;;;5.82;61.94;102144.13;5069204;27;102398;-70
2023/01/29 08:33:09;;;;;;;37.20;17.55;;;;;;;5.98;61.96;102145.13;5060675;27;99136;-70
2023/01/29 08:35:40;;;;;;;36.47;17.98;;;;;;;5.95;61.86;102132.00;5064058;27;97000;-69
2023/01/29 08:38:06;;;;;;;33.88;17.73;;;;;;;5.84;62.19;102136.28;5069494;27;97424;-70
2023/01/29 08:40:34;;;;;;;40.72;19.70;;;;;;;5.95;62.03;102145.13;5071218;27;98846;-70
2023/01/29 08:43:02;;;;;;;32.95;17.42;;;;;;;6.04;62.29;102139.06;5062336;27;98822;-70
2023/01/29 08:45:30;;;;;;;35.92;18.83;;;;;;;6.01;61.68;102139.91;5067506;27;97097;-70
2023/01/29 08:47:58;;;;;;;33.05;15.32;;;;;;;6.06;61.85;102137.28;5058960;27;97160;-69
2023/01/29 08:50:24;;;;;;;35.33;18.45;;;;;;;6.04;61.72;102136.44;5063493;27;100768;-70
2023/01/29 08:52:51;;;;;;;37.65;18.65;;;;;;;6.14;61.68;102149.59;5067096;27;98891;-69
2023/01/29 08:55:17;;;;;;;34.53;18.88;;;;;;;6.14;61.66;102143.47;5064761;27;97010;-69
2023/01/29 08:57:44;;;;;;;39.78;19.65;;;;;;;5.94;62.02;102138.09;5065634;27;98900;-68
2023/01/29 09:00:12;;;;;;;37.38;19.33;;;;;;;6.12;61.73;102139.94;5067534;27;99254;-69
2023/01/29 09:02:39;;;;;;;34.40;18.48;;;;;;;6.18;61.76;102129.47;5062372;27;102083;-71
2023/01/29 09:05:07;;;;;;;36.50;19.27;;;;;;;6.22;61.37;102131.25;5068301;27;97046;-69
2023/01/29 09:07:34;;;;;;;39.60;19.95;;;;;;;6.10;62.05;102133.81;5064267;27;97184;-69
2023/01/29 09:10:01;;;;;;;35.10;17.85;;;;;;;6.22;61.47;102123.38;5068219;27;99142;-70
2023/01/29 09:12:27;;;;;;;36.53;17.33;;;;;;;6.29;61.38;102126.03;5063601;27;100605;-70
2023/01/29 09:14:53;;;;;;;37.63;18.90;;;;;;;6.22;60.89;102129.50;5068026;27;97468;-69
2023/01/29 09:17:20;;;;;;;31.35;17.10;;;;;;;6.05;61.27;102131.16;5064993;27;97145;-70
2023/01/29 09:19:47;;;;;;;34.72;17.33;;;;;;;6.06;61.38;102134.66;5062429;27;99453;-68
2023/01/29 09:22:14;;;;;;;34.25;17.00;;;;;;;6.10;61.10;102126.84;5069835;27;99528;-70
2023/01/29 09:24:40;;;;;;;36.80;18.45;;;;;;;5.98;61.73;102124.13;5056832;27;97343;-69
2023/01/29 09:27:08;;;;;;;31.15;17.00;;;;;;;5.94;61.94;102123.25;5065591;27;97834;-69
2023/01/29 09:29:35;;;;;;;32.15;17.73;;;;;;;6.28;60.77;102128.66;5062258;27;99372;-71
2023/01/29 09:32:01;;;;;;;36.90;17.60;;;;;;;6.27;60.31;102122.53;5062567;27;96888;-70
2023/01/29 09:34:28;;;;;;;33.88;18.23;;;;;;;5.85;62.04;102117.03;5054997;27;97670;-69
2023/01/29 09:36:55;;;;;;;35.13;16.80;;;;;;;6.07;61.31;102110.19;5053416;27;97662;-68
2023/01/29 09:39:22;;;;;;;37.45;17.98;;;;;;;6.11;61.38;102114.56;5063374;27;101299;-69
2023/01/29 09:41:56;;;;;;;32.25;17.08;;;;;;;6.28;60.93;102113.78;5060040;27;98229;-70
2023/01/29 09:44:33;;;;;;;32.15;15.45;;;;;;;6.24;60.23;102109.38;5058196;27;98831;-70
2023/01/29 09:47:03;;;;;;;28.88;15.60;;;;;;;6.42;60.25;102111.22;5074756;27;97045;-70
2023/01/29 09:49:36;;;;;;;33.80;17.38;;;;;;;6.71;59.23;102096.38;5068613;27;100493;-70
2023/01/29 09:52:10;;;;;;;29.70;17.00;;;;;;;6.79;58.89;102097.28;5058935;27;98986;-69
2023/01/29 09:54:49;;;;;;;30.35;17.17;;;;;;;6.84;58.58;102091.13;5055754;27;98769;-69
2023/01/29 09:57:22;;;;;;;29.98;15.55;;;;;;;6.89;58.46;102087.66;5073752;27;96906;-69
2023/01/29 09:59:48;;;;;;;28.90;15.52;;;;;;;6.91;58.53;102082.38;5059480;27;98717;-70
2023/01/29 10:02:32;;;;;;;29.38;15.18;;;;;;;6.71;58.96;102078.00;5061457;27;98967;-70
2023/01/29 10:05:21;;;;;;;30.85;16.25;;;;;;;7.23;57.76;102075.38;5060271;27;98696;-70
2023/01/29 10:08:07;;;;;;;28.27;15.45;;;;;;;7.22;57.43;102067.53;5066486;27;97405;-70
2023/01/29 10:10:50;;;;;;;27.90;15.63;;;;;;;7.04;57.69;102063.13;5059454;27;99250;-70
2023/01/29 10:13:29;;;;;;;27.95;14.23;;;;;;;6.88;57.83;102059.63;5064434;27;99228;-70
2023/01/29 10:16:21;;;;;;;30.08;15.02;;;;;;;6.75;58.73;102055.25;5068320;27;97685;-70
2023/01/29 10:19:00;;;;;;;27.98;14.95;;;;;;;6.75;58.53;102052.63;5067228;27;97579;-70
2023/01/29 10:21:41;;;;;;;33.53;17.77;;;;;;;7.05;58.00;102051.75;5057980;27;99523;-70
2023/01/29 10:24:22;;;;;;;25.85;14.88;;;;;;;7.39;56.84;102053.47;5065256;27;98803;-70
2023/01/29 10:26:51;;;;;;;25.55;14.15;;;;;;;7.13;57.42;102071.03;5067275;27;98839;-70
2023/01/29 10:29:20;;;;;;;27.77;14.98;;;;;;;7.07;57.62;102069.28;5065259;27;98429;-72
2023/01/29 10:31:51;;;;;;;28.40;14.55;;;;;;;6.77;58.63;102072.75;5066116;27;99018;-72
2023/01/29 10:34:26;;;;;;;26.30;14.27;;;;;;;7.14;57.56;102067.53;5069463;27;98029;-70
2023/01/29 10:36:54;;;;;;;27.05;13.88;;;;;;;7.48;56.63;102069.22;5069247;27;97596;-69
2023/01/29 10:39:25;;;;;;;28.75;13.95;;;;;;;7.59;55.60;102062.19;5064506;27;96821;-69
2023/01/29 10:42:11;;;;;;;27.70;13.68;;;;;;;7.42;56.04;102060.44;5060363;27;99231;-70
2023/01/29 10:44:50;;;;;;;26.83;10.53;;;;;;;7.20;56.17;102044.72;5063412;27;98926;-71
2023/01/29 10:47:58;;;;;;;25.35;12.73;;;;;;;7.69;55.66;102038.47;5072106;27;97313;-70
2023/01/29 10:50:34;;;;;;;;;;;;;;;7.76;54.85;102033.19;5061428;27;98798;-71
2023/01/29 10:53:32;;;;;;;23.27;12.50;;;;;;;7.71;54.81;102034.09;5073037;27;99211;-71
2023/01/29 10:56:14;;;;;;;20.25;10.40;;;;;;;7.00;56.23;102032.47;5067388;27;102046;-71
2023/01/29 10:58:48;;;;;;;23.08;12.50;;;;;;;7.48;55.83;102029.75;5068143;27;97590;-70
2023/01/29 11:01:14;;;;;;;25.58;12.88;;;;;;;7.47;55.61;102014.88;5068173;27;96836;-70
2023/01/29 11:03:41;;;;;;;26.17;13.38;;;;;;;7.64;55.51;102008.69;5066514;27;98851;-70
2023/01/29 11:06:14;;;;;;;22.65;12.63;;;;;;;7.94;54.39;102001.53;5064297;27;97423;-70
2023/01/29 11:08:45;;;;;;;27.35;13.02;;;;;;;8.23;53.24;102005.75;5062043;27;98845;-71
2023/01/29 11:11:16;;;;;;;27.20;13.40;;;;;;;8.19;52.95;102001.41;5063492;27;98996;-71
2023/01/29 11:13:50;;;;;;;21.10;12.55;;;;;;;8.14;53.20;101996.16;5064685;27;99200;-71
2023/01/29 11:16:23;;;;;;;20.60;12.40;;;;;;;7.81;53.64;101991.94;5068272;27;98748;-71
2023/01/29 11:18:53;;;;;;;22.58;12.63;;;;;;;7.98;53.38;101992.75;5064972;27;96775;-71
2023/01/29 11:21:20;;;;;;;23.60;12.15;;;;;;;8.01;53.03;101983.94;5058082;27;96937;-71
2023/01/29 11:23:50;;;;;;;26.17;13.18;;;;;;;8.20;52.73;101975.09;5067493;27;99962;-72
2023/01/29 11:26:22;;;;;;;24.70;13.45;;;;;;;8.17;52.55;101980.34;5068032;27;99118;-71
2023/01/29 11:28:50;;;;;;;24.42;12.10;;;;;;;8.23;52.89;101980.31;5062382;27;98612;-71
2023/01/29 11:31:25;;;;;;;22.92;12.02;;;;;;;8.28;52.24;101978.50;5057250;27;97539;-70
2023/01/29 11:34:01;;;;;;;20.95;11.63;;;;;;;8.31;52.46;101970.66;5060593;27;98560;-70
2023/01/29 11:36:35;;;;;;;19.83;11.70;;;;;;;8.97;51.26;101967.47;5055010;27;99301;-71
2023/01/29 11:39:13;;;;;;;20.30;12.23;;;;;;;9.14;50.32;101955.84;5070519;27;97251;-70
2023/01/29 11:41:48;;;;;;;21.40;11.48;;;;;;;9.00;50.16;101948.97;5054027;27;97129;-70
2023/01/29 11:44:26;;;;;;;19.20;11.85;;;;;;;9.03;50.11;101951.59;5067383;27;98726;-69
2023/01/29 11:46:53;;;;;;;17.52;10.75;;;;;;;8.45;51.37;101945.97;5068009;27;97557;-70
2023/01/29 11:49:28;;;;;;;19.80;11.90;;;;;;;8.30;52.02;101946.91;5057680;27;99058;-70
2023/01/29 11:51:57;;;;;;;20.17;10.88;;;;;;;8.06;52.30;101950.59;5063075;27;99834;-70
2023/01/29 11:54:31;;;;;;;20.10;12.18;;;;;;;8.39;52.10;101942.50;5063412;27;99770;-70
2023/01/29 11:56:59;;;;;;;19.90;11.48;;;;;;;8.26;51.93;101951.34;5062191;27;99184;-71
2023/01/29 11:59:43;;;;;;;20.52;10.60;;;;;;;8.01;51.99;101934.81;5067838;27;97883;-71
2023/01/29 12:02:26;;;;;;;21.45;11.45;;;;;;;8.10;52.49;101928.63;5071459;27;98489;-70
2023/01/29 12:05:03;;;;;;;18.92;10.95;;;;;;;8.15;52.44;101934.72;5069781;27;102314;-71